Time,TemperatureF,DewpointF,PressureIn,WindDirection,WindDirectionDegrees,WindSpeedMPH,WindSpeedGustMPH,Humidity,HourlyPrecipIn,Conditions,Clouds,dailyrainin,SoftwareType,DateUTC
2013-04-07 00:04:00,-999.0,-99.9,30.30,North,-999,-999.0,-999.0,-999,-99.99,,,0.00,weatherlink.com 1.10,2013-04-07 04:04:00,
2013-04-07 00:19:00,-999.0,-99.9,30.30,North,-999,-999.0,-999.0,-999,-99.99,,,0.00,weatherlink.com 1.10,2013-04-07 04:19:00,
2013-04-07 00:34:00,-999.0,-99.9,30.30,North,-999,-999.0,-999.0,-999,-99.99,,,0.00,weatherlink.com 1.10,2013-04-07 04:34:00,
2013-04-07 00:49:00,-999.0,-99.9,30.30,North,-999,-999.0,-999.0,-999,-99.99,,,0.00,weatherlink.com 1.10,2013-04-07 04:49:00,
2013-04-07 01:04:00,-999.0,-99.9,30.31,North,-999,-999.0,-999.0,-999,-99.99,,,0.00,weatherlink.com 1.10,2013-04-07 05:04:00,
2013-04-07 01:19:00,-999.0,-99.9,30.30,North,-999,-999.0,-999.0,-999,-99.99,,,0.00,weatherlink.com 1.10,2013-04-07 05:19:00,
2013-04-07 01:34:00,-999.0,-99.9,30.30,North,-999,-999.0,-999.0,-999,-99.99,,,0.00,weatherlink.com 1.10,2013-04-07 05:34:00,
2013-04-07 01:49:00,-999.0,-99.9,30.30,North,-999,-999.0,-999.0,-999,-99.99,,,0.00,weatherlink.com 1.10,2013-04-07 05:49:00,
2013-04-07 04:03:00,-999.0,-99.9,30.25,North,-999,-999.0,-999.0,-999,-99.99,,,0.00,weatherlink.com 1.10,2013-04-07 08:03:00,
2013-04-07 04:49:00,-999.0,-99.9,30.25,North,-999,-999.0,-999.0,-999,-99.99,,,0.00,weatherlink.com 1.10,2013-04-07 08:49:00,
2013-04-07 05:04:00,-999.0,-99.9,30.25,North,-999,-999.0,-999.0,-999,-99.99,,,0.00,weatherlink.com 1.10,2013-04-07 09:04:00,
2013-04-07 05:19:00,-999.0,-99.9,30.25,North,-999,-999.0,-999.0,-999,-99.99,,,0.00,weatherlink.com 1.10,2013-04-07 09:19:00,
2013-04-07 05:34:00,-999.0,-99.9,30.25,North,-999,-999.0,-999.0,-999,-99.99,,,0.00,weatherlink.com 1.10,2013-04-07 09:34:00,
2013-04-07 05:49:00,-999.0,-99.9,30.25,North,-999,-999.0,-999.0,-999,-99.99,,,0.00,weatherlink.com 1.10,2013-04-07 09:49:00,
2013-04-07 06:04:00,-999.0,-99.9,30.25,North,-999,-999.0,-999.0,-999,-99.99,,,0.00,weatherlink.com 1.10,2013-04-07 10:04:00,
2013-04-07 06:19:00,-999.0,-99.9,30.25,North,-999,-999.0,-999.0,-999,-99.99,,,0.00,weatherlink.com 1.10,2013-04-07 10:19:00,
2013-04-07 06:34:00,-999.0,-99.9,30.25,North,-999,-999.0,-999.0,-999,-99.99,,,0.00,weatherlink.com 1.10,2013-04-07 10:34:00,
2013-04-07 06:49:00,-999.0,-99.9,30.25,North,-999,-999.0,-999.0,-999,-99.99,,,0.00,weatherlink.com 1.10,2013-04-07 10:49:00,
2013-04-07 07:04:00,-999.0,-99.9,30.26,North,-999,-999.0,-999.0,-999,-99.99,,,0.00,weatherlink.com 1.10,2013-04-07 11:04:00,
2013-04-07 07:19:00,-999.0,-99.9,30.26,North,-999,-999.0,-999.0,-999,-99.99,,,0.00,weatherlink.com 1.10,2013-04-07 11:19:00,
2013-04-07 07:34:00,-999.0,-99.9,30.26,North,-999,-999.0,-999.0,-999,-99.99,,,0.00,weatherlink.com 1.10,2013-04-07 11:34:00,
2013-04-07 07:49:00,-999.0,-99.9,30.26,North,-999,-999.0,-999.0,-999,-99.99,,,0.00,weatherlink.com 1.10,2013-04-07 11:49:00,
2013-04-07 08:04:00,44.9,38.0,30.26,South,186,4.0,-999.0,78,-99.99,,,0.00,weatherlink.com 1.10,2013-04-07 12:04:00,
2013-04-07 08:19:00,45.8,38.0,30.26,South,185,9.0,-999.0,75,-99.99,,,0.00,weatherlink.com 1.10,2013-04-07 12:19:00,
2013-04-07 08:34:00,46.8,39.0,30.26,South,184,16.0,-999.0,74,-99.99,,,0.00,weatherlink.com 1.10,2013-04-07 12:34:00,
2013-04-07 08:49:00,47.4,39.0,30.25,South,191,10.0,-999.0,73,-99.99,,,0.00,weatherlink.com 1.10,2013-04-07 12:49:00,
2013-04-07 09:05:00,48.1,40.0,30.25,SSW,202,10.0,-999.0,73,-99.99,,,0.00,weatherlink.com 1.10,2013-04-07 13:05:00,
2013-04-07 09:19:00,49.1,40.0,30.25,South,169,8.0,-999.0,71,-99.99,,,0.00,weatherlink.com 1.10,2013-04-07 13:19:00,
2013-04-07 09:35:00,49.4,40.0,30.25,South,184,9.0,-999.0,70,-99.99,,,0.00,weatherlink.com 1.10,2013-04-07 13:35:00,
2013-04-07 09:50:00,50.8,41.0,30.24,South,176,5.0,-999.0,69,-99.99,,,0.00,weatherlink.com 1.10,2013-04-07 13:50:00,
2013-04-07 10:04:00,51.0,41.0,30.24,SSW,194,8.0,-999.0,69,-99.99,,,0.00,weatherlink.com 1.10,2013-04-07 14:04:00,
2013-04-07 10:19:00,52.8,42.0,30.23,SSW,203,10.0,-999.0,66,-99.99,,,0.00,weatherlink.com 1.10,2013-04-07 14:19:00,
2013-04-07 10:50:00,53.7,42.0,30.23,SW,221,6.0,-999.0,66,-99.99,,,0.00,weatherlink.com 1.10,2013-04-07 14:50:00,
2013-04-07 11:04:00,54.5,43.0,30.23,South,169,7.0,-999.0,65,-99.99,,,0.00,weatherlink.com 1.10,2013-04-07 15:04:00,
2013-04-07 11:19:00,55.4,41.0,30.22,SW,223,6.0,-999.0,59,-99.99,,,0.00,weatherlink.com 1.10,2013-04-07 15:19:00,
2013-04-07 11:34:00,56.0,41.0,30.21,South,182,13.0,-999.0,57,-99.99,,,0.00,weatherlink.com 1.10,2013-04-07 15:34:00,
2013-04-07 11:49:00,56.4,41.0,30.20,SSW,213,3.0,-999.0,57,-99.99,,,0.00,weatherlink.com 1.10,2013-04-07 15:49:00,
2013-04-07 12:04:00,56.8,42.0,30.19,SSW,205,9.0,-999.0,58,-99.99,,,0.00,weatherlink.com 1.10,2013-04-07 16:04:00,
2013-04-07 12:19:00,57.2,43.0,30.18,SW,214,6.0,-999.0,59,-99.99,,,0.00,weatherlink.com 1.10,2013-04-07 16:19:00,
2013-04-07 12:34:00,56.9,43.0,30.16,South,178,13.0,-999.0,60,-99.99,,,0.00,weatherlink.com 1.10,2013-04-07 16:34:00,
2013-04-07 12:49:00,57.6,43.0,30.16,SSW,199,11.0,-999.0,59,-99.99,,,0.00,weatherlink.com 1.10,2013-04-07 16:49:00,
2013-04-07 13:04:00,58.9,45.0,30.14,SSW,212,6.0,-999.0,61,-99.99,,,0.00,weatherlink.com 1.10,2013-04-07 17:04:00,
2013-04-07 13:19:00,58.0,45.0,30.14,South,190,19.0,-999.0,62,-99.99,,,0.00,weatherlink.com 1.10,2013-04-07 17:19:00,
2013-04-07 13:34:00,59.2,46.0,30.13,SSW,202,5.0,-999.0,61,-99.99,,,0.00,weatherlink.com 1.10,2013-04-07 17:34:00,
2013-04-07 13:49:00,59.0,45.0,30.12,South,178,6.0,-999.0,61,-99.99,,,0.00,weatherlink.com 1.10,2013-04-07 17:49:00,
2013-04-07 14:04:00,59.4,46.0,30.11,SSW,201,17.0,-999.0,61,-99.99,,,0.00,weatherlink.com 1.10,2013-04-07 18:04:00,
2013-04-07 14:19:00,59.9,45.0,30.11,SSW,194,7.0,-999.0,59,-99.99,,,0.00,weatherlink.com 1.10,2013-04-07 18:19:00,
2013-04-07 14:34:00,60.0,46.0,30.10,SSW,211,6.0,-999.0,60,-99.99,,,0.00,weatherlink.com 1.10,2013-04-07 18:34:00,
2013-04-07 14:49:00,59.5,46.0,30.09,SSW,205,10.0,-999.0,61,-99.99,,,0.00,weatherlink.com 1.10,2013-04-07 18:49:00,
2013-04-07 15:04:00,60.2,47.0,30.08,SW,215,16.0,-999.0,61,-99.99,,,0.00,weatherlink.com 1.10,2013-04-07 19:04:00,
2013-04-07 15:19:00,59.6,47.0,30.07,SSW,202,5.0,-999.0,63,-99.99,,,0.00,weatherlink.com 1.10,2013-04-07 19:19:00,
2013-04-07 15:34:00,59.5,46.0,30.06,SW,220,3.0,-999.0,62,-99.99,,,0.00,weatherlink.com 1.10,2013-04-07 19:34:00,
2013-04-07 15:49:00,59.3,47.0,30.06,SW,226,9.0,-999.0,63,-99.99,,,0.00,weatherlink.com 1.10,2013-04-07 19:49:00,
2013-04-07 16:20:00,60.2,47.0,30.06,SW,225,10.0,-999.0,61,-99.99,,,0.00,weatherlink.com 1.10,2013-04-07 20:20:00,
2013-04-07 16:34:00,60.3,47.0,30.05,SSW,192,11.0,-999.0,61,-99.99,,,0.00,weatherlink.com 1.10,2013-04-07 20:34:00,
2013-04-07 16:49:00,60.1,47.0,30.06,SSW,205,13.0,-999.0,62,-99.99,,,0.00,weatherlink.com 1.10,2013-04-07 20:49:00,
2013-04-07 17:04:00,60.0,47.0,30.05,SSW,205,7.0,-999.0,62,-99.99,,,0.00,weatherlink.com 1.10,2013-04-07 21:04:00,
2013-04-07 17:19:00,60.0,46.0,30.03,South,180,14.0,-999.0,60,-99.99,,,0.00,weatherlink.com 1.10,2013-04-07 21:19:00,
2013-04-07 17:50:00,59.5,46.0,30.00,South,191,25.0,-999.0,62,-99.99,,,0.00,weatherlink.com 1.10,2013-04-07 21:50:00,
2013-04-07 18:04:00,59.2,47.0,29.98,South,188,14.0,-999.0,64,-99.99,,,0.00,weatherlink.com 1.10,2013-04-07 22:04:00,
2013-04-07 18:19:00,58.7,47.0,29.99,SSW,202,5.0,-999.0,66,-99.99,,,0.00,weatherlink.com 1.10,2013-04-07 22:19:00,
2013-04-07 18:34:00,59.0,48.0,30.02,SW,229,5.0,-999.0,66,-99.99,,,0.00,weatherlink.com 1.10,2013-04-07 22:34:00,
2013-04-07 18:49:00,-999.0,-99.9,30.03,North,-999,-999.0,-999.0,-999,-99.99,,,0.00,weatherlink.com 1.10,2013-04-07 22:49:00,
2013-04-07 19:05:00,-999.0,-99.9,30.03,North,-999,-999.0,-999.0,-999,-99.99,,,0.00,weatherlink.com 1.10,2013-04-07 23:05:00,
2013-04-07 19:19:00,-999.0,-99.9,30.03,North,-999,-999.0,-999.0,-999,-99.99,,,0.00,weatherlink.com 1.10,2013-04-07 23:19:00,
2013-04-07 19:34:00,-999.0,-99.9,30.03,North,-999,-999.0,-999.0,-999,-99.99,,,0.00,weatherlink.com 1.10,2013-04-07 23:34:00,
2013-04-07 19:49:00,-999.0,-99.9,30.03,North,-999,-999.0,-999.0,-999,-99.99,,,0.00,weatherlink.com 1.10,2013-04-07 23:49:00,
2013-04-07 20:04:00,-999.0,-99.9,30.02,North,-999,-999.0,-999.0,-999,-99.99,,,0.00,weatherlink.com 1.10,2013-04-08 00:04:00,
2013-04-07 20:20:00,-999.0,-99.9,30.02,North,-999,-999.0,-999.0,-999,-99.99,,,0.00,weatherlink.com 1.10,2013-04-08 00:20:00,
2013-04-07 20:34:00,-999.0,-99.9,30.02,North,-999,-999.0,-999.0,-999,-99.99,,,0.00,weatherlink.com 1.10,2013-04-08 00:34:00,
2013-04-07 20:49:00,-999.0,-99.9,30.02,North,-999,-999.0,-999.0,-999,-99.99,,,0.00,weatherlink.com 1.10,2013-04-08 00:49:00,
2013-04-07 21:05:00,-999.0,-99.9,30.03,North,-999,-999.0,-999.0,-999,-99.99,,,0.00,weatherlink.com 1.10,2013-04-08 01:05:00,
2013-04-07 21:35:00,-999.0,-99.9,30.03,North,-999,-999.0,-999.0,-999,-99.99,,,0.00,weatherlink.com 1.10,2013-04-08 01:35:00,
2013-04-07 21:50:00,-999.0,-99.9,30.03,North,-999,-999.0,-999.0,-999,-99.99,,,0.00,weatherlink.com 1.10,2013-04-08 01:50:00,
2013-04-07 22:04:00,-999.0,-99.9,30.03,North,-999,-999.0,-999.0,-999,-99.99,,,0.00,weatherlink.com 1.10,2013-04-08 02:04:00,
2013-04-07 22:20:00,-999.0,-99.9,30.03,North,-999,-999.0,-999.0,-999,-99.99,,,0.00,weatherlink.com 1.10,2013-04-08 02:20:00,
2013-04-07 22:34:00,-999.0,-99.9,30.03,North,-999,-999.0,-999.0,-999,-99.99,,,0.00,weatherlink.com 1.10,2013-04-08 02:34:00,
2013-04-07 22:49:00,-999.0,-99.9,30.02,North,-999,-999.0,-999.0,-999,-99.99,,,0.00,weatherlink.com 1.10,2013-04-08 02:49:00,
2013-04-07 23:04:00,-999.0,-99.9,30.02,North,-999,-999.0,-999.0,-999,-99.99,,,0.00,weatherlink.com 1.10,2013-04-08 03:04:00,
2013-04-07 23:20:00,-999.0,-99.9,30.02,North,-999,-999.0,-999.0,-999,-99.99,,,0.00,weatherlink.com 1.10,2013-04-08 03:20:00,
2013-04-07 23:50:00,-999.0,-99.9,30.02,North,-999,-999.0,-999.0,-999,-99.99,,,0.00,weatherlink.com 1.10,2013-04-08 03:50:00,